Dover, Illinois
Current Conditions -  °F | °C
As of 8:15 AM on Sunday 25 Jan 2015 (Local Time) from KVYS Reporting Station
Light Snow Light Snow  
Wind Chill: 23°   Ceiling: 300
Heat Index: 33°   Visibility: 1mi
Dew Point: 33°   Wind: 14mph
Humidity: 98%   Direction: 60°ENE
Pressure: 29.7"   Gusts: NA
Location:  41.44°N, 89.39°W
Report Text: KVYS 251415Z AUTO 06012KT 1SM -SN OVC003 01/00 A2970 RMK AO2 T00060003
Loading
Personal Weather Stations






























Interactive Weather Map New forecast layout! Learn more

10-Day Weather Forecast

Advertisements
Track Severe Weather on mobile